Time;durP1;ratioP1;P1;durP2;ratioP2;P2;SDS_P1;SDS_P2;PMS_P1;PMS_P2;Temp;Humidity;BMP_temperature;BMP_pressure;BME280_temperature;BME280_humidity;BME280_pressure;Samples;Min_cycle;Max_cycle;Signal;HPM_P1;HPM_P2
2021/05/08 00:01:37;;;;;;;6.60;5.88;;;;;;;6.81;32.12;101336.59;4997555;28;99128;-71
2021/05/08 00:04:05;;;;;;;6.18;5.70;;;;;;;6.79;32.33;101330.34;4999339;28;97823;-71
2021/05/08 00:06:34;;;;;;;6.88;6.05;;;;;;;6.77;32.04;101339.94;4999044;28;97494;-71
2021/05/08 00:09:04;;;;;;;6.13;5.63;;;;;;;6.71;32.41;101337.94;4999447;28;96884;-71
2021/05/08 00:11:31;;;;;;;6.15;5.75;;;;;;;6.67;32.48;101332.44;4999725;28;98167;-73
2021/05/08 00:13:58;;;;;;;6.68;6.15;;;;;;;6.66;32.52;101333.25;4990776;28;97898;-75
2021/05/08 00:16:27;;;;;;;6.63;6.07;;;;;;;6.63;32.19;101330.50;4997556;28;97438;-72
2021/05/08 00:18:55;;;;;;;7.28;6.40;;;;;;;6.59;32.61;101339.13;4998209;28;97701;-72
2021/05/08 00:21:22;;;;;;;6.30;5.57;;;;;;;6.58;32.38;101338.19;4998383;28;98425;-74
2021/05/08 00:23:50;;;;;;;6.72;5.97;;;;;;;6.56;32.41;101338.97;4999587;28;97972;-72
2021/05/08 00:26:18;;;;;;;7.03;6.20;;;;;;;6.56;32.57;101341.63;4998414;28;97636;-73
2021/05/08 00:28:46;;;;;;;6.50;5.75;;;;;;;6.55;32.41;101342.44;4998801;28;96816;-75
2021/05/08 00:31:14;;;;;;;6.95;6.43;;;;;;;6.51;32.58;101346.69;4998839;28;99322;-73
2021/05/08 00:33:42;;;;;;;6.38;5.80;;;;;;;6.52;32.47;101342.31;4997994;28;98266;-72
2021/05/08 00:36:09;;;;;;;8.70;6.55;;;;;;;6.50;32.36;101334.31;4997682;28;97048;-71
2021/05/08 00:38:38;;;;;;;6.85;6.25;;;;;;;6.51;32.43;101335.19;5000403;28;97099;-71
2021/05/08 00:41:05;;;;;;;7.00;6.30;;;;;;;6.49;32.88;101337.78;4996454;28;99099;-74
2021/05/08 00:43:36;;;;;;;7.22;6.15;;;;;;;6.47;32.68;101330.63;4997808;28;97728;-73
2021/05/08 00:46:04;;;;;;;8.25;6.03;;;;;;;6.47;32.56;101335.91;4998111;28;96834;-73
2021/05/08 00:48:33;;;;;;;6.75;6.15;;;;;;;6.44;32.82;101338.41;4997873;28;98314;-72
2021/05/08 00:51:02;;;;;;;8.25;6.60;;;;;;;6.44;32.51;101328.72;4996367;28;98874;-72
2021/05/08 00:53:29;;;;;;;7.90;7.20;;;;;;;6.42;32.62;101335.69;5000221;28;98052;-73
2021/05/08 00:55:57;;;;;;;7.55;6.43;;;;;;;6.43;32.78;101331.31;4997577;28;96874;-69
2021/05/08 00:58:27;;;;;;;6.47;6.00;;;;;;;6.45;32.55;101329.66;4998021;28;97277;-74
2021/05/08 01:00:55;;;;;;;6.93;6.43;;;;;;;6.49;32.80;101331.59;4996757;28;98504;-73
2021/05/08 01:03:25;;;;;;;7.28;6.57;;;;;;;6.46;32.77;101337.66;4997411;28;99116;-73
2021/05/08 01:05:53;;;;;;;6.43;5.90;;;;;;;6.44;32.98;101338.41;4999046;28;96919;-74
2021/05/08 01:08:22;;;;;;;6.95;6.35;;;;;;;6.44;32.97;101331.38;4999749;28;96919;-73
2021/05/08 01:10:50;;;;;;;8.63;7.75;;;;;;;6.46;32.72;101345.56;4997934;28;100913;-71
2021/05/08 01:13:17;;;;;;;7.05;6.35;;;;;;;6.40;33.17;101342.63;4999216;28;97488;-72
2021/05/08 01:15:45;;;;;;;7.40;6.80;;;;;;;6.37;33.16;101346.88;4997471;28;96884;-71
2021/05/08 01:18:13;;;;;;;7.30;6.30;;;;;;;6.38;32.84;101346.06;4995271;28;97387;-72
2021/05/08 01:20:41;;;;;;;7.22;6.63;;;;;;;6.40;33.05;101344.41;4999754;28;99118;-73
2021/05/08 01:23:10;;;;;;;6.80;6.32;;;;;;;6.41;33.00;101343.56;5000103;28;101432;-74
2021/05/08 01:25:37;;;;;;;6.68;6.07;;;;;;;6.40;33.25;101347.03;4996753;28;97506;-71
2021/05/08 01:28:04;;;;;;;6.57;6.18;;;;;;;6.41;33.11;101344.47;4999333;28;98050;-75
2021/05/08 01:30:38;;;;;;;7.93;6.85;;;;;;;6.40;33.06;101344.41;4997167;28;98863;-72
2021/05/08 01:33:14;;;;;;;11.27;6.47;;;;;;;6.35;33.39;101348.53;4998238;28;99807;-72
2021/05/08 01:35:43;;;;;;;7.80;7.10;;;;;;;6.27;33.20;101344.66;4996000;28;97604;-71
2021/05/08 01:38:11;;;;;;;7.57;6.88;;;;;;;6.23;33.56;101340.94;4997480;28;97614;-74
2021/05/08 01:40:41;;;;;;;7.82;7.13;;;;;;;6.20;33.23;101351.31;5010636;27;97191;-71
2021/05/08 01:43:18;;;;;;;7.50;6.80;;;;;;;6.19;33.20;101346.88;5006236;28;98920;-73
2021/05/08 01:45:45;;;;;;;7.80;6.88;;;;;;;6.10;33.25;101344.69;4996448;28;97224;-73
2021/05/08 01:48:13;;;;;;;7.70;7.00;;;;;;;6.08;33.18;101343.75;4999562;28;97837;-72
2021/05/08 01:50:42;;;;;;;7.38;6.68;;;;;;;6.09;33.13;101341.97;4995954;28;98519;-71
2021/05/08 01:53:10;;;;;;;7.85;7.05;;;;;;;6.10;33.18;101349.09;4994479;28;97780;-72
2021/05/08 01:55:41;;;;;;;8.82;7.85;;;;;;;6.11;33.25;101350.88;4995361;28;97426;-72
2021/05/08 01:58:17;;;;;;;8.35;7.45;;;;;;;6.12;33.24;101345.66;4997681;28;97990;-72
2021/05/08 02:00:49;;;;;;;8.40;7.68;;;;;;;6.13;33.25;101346.59;4994047;28;97779;-72
2021/05/08 02:03:17;;;;;;;8.68;7.88;;;;;;;6.13;33.15;101344.88;4993904;28;98248;-71
2021/05/08 02:05:47;;;;;;;8.55;7.63;;;;;;;6.13;33.36;101344.88;4995405;28;97233;-72
2021/05/08 02:08:28;;;;;;;8.70;7.85;;;;;;;6.13;33.32;101343.94;4995644;28;97880;-74
2021/05/08 02:10:56;;;;;;;7.97;7.20;;;;;;;6.14;33.22;101338.72;4995476;28;99001;-73
2021/05/08 02:13:23;;;;;;;8.45;7.75;;;;;;;6.19;33.32;101341.59;5000296;28;99342;-71
2021/05/08 02:15:50;;;;;;;9.68;8.45;;;;;;;6.19;32.91;101346.88;5001848;28;97476;-75
2021/05/08 02:18:18;;;;;;;9.30;8.20;;;;;;;6.19;33.22;101342.53;5004613;28;96838;-72
2021/05/08 02:20:45;;;;;;;8.98;8.18;;;;;;;6.21;33.07;101340.81;5000161;28;98251;-71
2021/05/08 02:23:18;;;;;;;7.95;7.28;;;;;;;6.23;33.12;101336.53;4997765;28;97525;-72
2021/05/08 02:25:51;;;;;;;8.43;7.63;;;;;;;6.23;33.31;101335.63;5014870;27;96942;-72
2021/05/08 02:28:18;;;;;;;8.13;7.38;;;;;;;6.24;33.14;101345.38;4998251;28;97469;-74
2021/05/08 02:30:46;;;;;;;8.40;7.70;;;;;;;6.22;33.34;101347.03;4998217;28;99433;-71
2021/05/08 02:33:26;;;;;;;8.32;7.53;;;;;;;6.20;33.41;101349.59;4996046;28;97982;-72
2021/05/08 02:35:54;;;;;;;9.25;8.35;;;;;;;6.17;33.39;101348.56;5000119;28;97439;-72
2021/05/08 02:38:21;;;;;;;9.45;8.43;;;;;;;6.16;33.32;101349.38;4997778;28;97494;-74
2021/05/08 02:40:52;;;;;;;9.63;8.77;;;;;;;6.14;33.45;101343.13;4999332;28;99988;-72
2021/05/08 02:43:20;;;;;;;9.00;8.15;;;;;;;6.12;33.58;101345.66;4997425;28;99725;-72
2021/05/08 02:45:56;;;;;;;9.00;8.18;;;;;;;6.09;33.40;101345.53;4998177;28;97661;-73
2021/05/08 02:48:23;;;;;;;9.90;8.45;;;;;;;6.09;33.83;101345.53;5000006;28;97773;-70
2021/05/08 02:50:55;;;;;;;9.73;8.80;;;;;;;6.11;33.61;101348.25;4997679;28;100827;-72
2021/05/08 02:53:23;;;;;;;9.73;8.73;;;;;;;6.10;33.77;101349.97;4996939;28;97871;-71
2021/05/08 02:55:50;;;;;;;9.85;8.85;;;;;;;6.11;33.75;101346.53;4995661;28;97144;-72
2021/05/08 02:58:22;;;;;;;11.68;8.73;;;;;;;6.13;33.73;101346.59;4997298;28;97120;-71
2021/05/08 03:00:51;;;;;;;11.05;9.93;;;;;;;6.13;33.66;101349.22;4996133;28;98881;-72
2021/05/08 03:03:19;;;;;;;14.07;9.48;;;;;;;6.10;33.50;101357.91;4996823;28;98174;-72
2021/05/08 03:05:49;;;;;;;10.25;9.25;;;;;;;6.09;33.64;101350.81;4997675;28;97406;-71
2021/05/08 03:08:25;;;;;;;10.98;9.20;;;;;;;6.08;33.87;101351.66;5000464;28;96904;-72
2021/05/08 03:10:57;;;;;;;14.65;9.55;;;;;;;6.06;33.95;101349.78;5011180;27;98148;-72
2021/05/08 03:13:28;;;;;;;10.05;9.05;;;;;;;6.09;33.60;101349.91;4998243;28;97850;-72
2021/05/08 03:15:55;;;;;;;11.35;9.57;;;;;;;6.09;33.82;101350.81;4999526;28;96769;-71
2021/05/08 03:18:23;;;;;;;11.02;9.90;;;;;;;6.10;33.92;101352.63;5000509;28;97916;-72
2021/05/08 03:20:50;;;;;;;11.27;9.60;;;;;;;6.12;33.74;101355.38;4999992;28;97400;-71
2021/05/08 03:23:20;;;;;;;10.80;9.75;;;;;;;6.13;33.73;101352.78;4999031;28;100391;-72
2021/05/08 03:25:48;;;;;;;11.88;9.65;;;;;;;6.14;33.76;101354.59;5000916;28;97879;-76
2021/05/08 03:28:16;;;;;;;12.55;11.35;;;;;;;6.15;33.60;101353.75;4997955;28;96707;-71
2021/05/08 03:30:45;;;;;;;10.50;9.45;;;;;;;6.11;33.66;101357.09;5000614;28;97891;-74
2021/05/08 03:33:13;;;;;;;11.05;9.95;;;;;;;6.11;33.88;101359.72;4998458;28;97842;-72
2021/05/08 03:35:41;;;;;;;10.77;9.70;;;;;;;6.11;33.86;101354.44;4999734;28;97363;-72
2021/05/08 03:38:09;;;;;;;15.38;9.88;;;;;;;6.10;33.67;101360.53;5007639;28;97759;-74
2021/05/08 03:40:36;;;;;;;12.10;10.95;;;;;;;6.11;33.75;101361.47;5000457;28;98266;-73
2021/05/08 03:43:04;;;;;;;13.40;10.32;;;;;;;6.10;33.84;101363.19;5000573;28;101190;-73
2021/05/08 03:45:31;;;;;;;11.85;9.85;;;;;;;6.10;34.09;101360.53;4998064;28;98234;-75
2021/05/08 03:48:05;;;;;;;12.25;10.45;;;;;;;6.08;34.08;101364.88;4999594;28;96847;-72
2021/05/08 03:50:33;;;;;;;11.82;9.93;;;;;;;6.06;34.19;101369.19;4998649;28;98048;-74
2021/05/08 03:53:00;;;;;;;11.00;9.88;;;;;;;6.04;33.85;101375.22;4997807;28;97246;-73
2021/05/08 03:55:27;;;;;;;12.02;10.48;;;;;;;6.03;33.76;101371.66;4999316;28;97790;-74
2021/05/08 03:57:55;;;;;;;12.45;10.60;;;;;;;6.03;34.05;101369.00;5001399;28;97369;-74
2021/05/08 04:00:22;;;;;;;13.85;10.43;;;;;;;6.07;33.80;101372.69;4999366;28;98647;-71
2021/05/08 04:02:50;;;;;;;11.35;10.18;;;;;;;6.07;34.08;101378.00;4996217;28;100018;-71
2021/05/08 04:05:17;;;;;;;13.07;10.02;;;;;;;6.08;33.87;101385.09;4997571;28;96913;-73
2021/05/08 04:07:45;;;;;;;12.23;10.77;;;;;;;6.08;34.12;101380.72;4997306;28;97551;-71
2021/05/08 04:10:12;;;;;;;13.10;10.95;;;;;;;6.04;34.01;101381.41;4997903;28;97929;-71
2021/05/08 04:12:39;;;;;;;13.13;10.52;;;;;;;6.01;33.83;101381.22;4999111;28;98557;-71
2021/05/08 04:15:07;;;;;;;14.52;11.13;;;;;;;6.02;33.90;101385.72;4988622;28;99417;-72
2021/05/08 04:17:35;;;;;;;12.65;10.55;;;;;;;6.05;34.09;101382.31;4993820;28;97847;-74
2021/05/08 04:20:02;;;;;;;12.00;10.80;;;;;;;6.03;33.87;101387.50;4995407;28;97984;-73
2021/05/08 04:22:30;;;;;;;13.82;11.10;;;;;;;6.04;33.86;101388.41;4997849;28;99159;-71
2021/05/08 04:24:58;;;;;;;14.88;11.85;;;;;;;6.06;34.09;101394.69;4997726;28;97218;-72
2021/05/08 04:27:25;;;;;;;12.15;10.88;;;;;;;6.05;33.67;101391.13;5000033;28;97491;-73
2021/05/08 04:29:55;;;;;;;10.98;9.68;;;;;;;6.02;34.05;101391.00;4997530;28;97978;-74
2021/05/08 04:32:22;;;;;;;14.55;10.75;;;;;;;6.01;33.94;101391.81;4998827;28;97242;-72
2021/05/08 04:34:49;;;;;;;12.18;10.88;;;;;;;6.00;34.25;101391.72;4997648;28;97253;-71
2021/05/08 04:37:16;;;;;;;11.65;10.27;;;;;;;6.01;34.01;101394.44;4998815;28;97785;-73
2021/05/08 04:39:45;;;;;;;14.55;10.10;;;;;;;6.04;33.86;101399.91;4996803;28;97843;-74
2021/05/08 04:42:12;;;;;;;13.00;10.68;;;;;;;6.07;34.02;101405.31;4996468;28;98398;-72
2021/05/08 04:44:39;;;;;;;12.98;10.38;;;;;;;6.08;33.84;101399.22;4999314;28;97886;-73
2021/05/08 04:47:07;;;;;;;15.40;11.10;;;;;;;6.11;33.91;101403.72;4996357;28;98162;-71
2021/05/08 04:49:34;;;;;;;13.05;11.10;;;;;;;6.11;33.76;101401.09;4997912;28;102140;-73
2021/05/08 04:52:02;;;;;;;16.15;12.23;;;;;;;6.14;33.74;101411.84;4996839;28;97882;-71
2021/05/08 04:54:29;;;;;;;15.45;11.40;;;;;;;6.17;33.72;101398.75;4995436;28;97364;-71
2021/05/08 04:56:57;;;;;;;12.35;11.05;;;;;;;6.20;33.84;101410.38;4996587;28;98227;-71
2021/05/08 04:59:24;;;;;;;13.95;12.55;;;;;;;6.20;33.81;101405.09;4996242;28;97683;-71
2021/05/08 05:01:52;;;;;;;13.70;11.88;;;;;;;6.23;33.61;101401.72;4993361;28;98572;-72
2021/05/08 05:04:19;;;;;;;15.82;11.60;;;;;;;6.24;33.77;101412.34;4993644;28;96887;-71
2021/05/08 05:06:47;;;;;;;14.10;11.20;;;;;;;6.27;33.64;101408.06;4998184;28;98054;-71
2021/05/08 05:09:14;;;;;;;14.38;12.45;;;;;;;6.33;33.70;101413.63;4996417;28;99277;-73
2021/05/08 05:11:41;;;;;;;15.05;13.13;;;;;;;6.38;33.67;101410.38;4996751;28;98132;-71
2021/05/08 05:14:09;;;;;;;17.63;13.20;;;;;;;6.47;33.47;101412.59;4994832;28;98339;-74
2021/05/08 05:16:37;;;;;;;13.32;11.93;;;;;;;6.57;33.65;101414.81;4995715;28;97529;-71
2021/05/08 05:19:04;;;;;;;16.17;11.90;;;;;;;6.61;33.71;101414.13;4997320;28;97885;-73
2021/05/08 05:21:31;;;;;;;14.38;12.68;;;;;;;6.62;33.58;101415.91;4997691;28;97780;-75
2021/05/08 05:23:59;;;;;;;13.88;12.18;;;;;;;6.68;33.33;101416.22;4997727;28;96749;-71
2021/05/08 05:26:26;;;;;;;14.90;12.30;;;;;;;6.74;33.18;101420.06;4998111;28;98799;-73
2021/05/08 05:28:54;;;;;;;14.93;13.15;;;;;;;6.79;33.24;101418.53;4999487;28;97759;-72
2021/05/08 05:31:22;;;;;;;13.98;12.35;;;;;;;6.86;33.20;101419.72;4996353;28;97835;-70
2021/05/08 05:33:49;;;;;;;19.30;16.87;;;;;;;6.87;33.95;101421.53;4996158;28;98043;-70
2021/05/08 05:36:17;;;;;;;17.13;13.65;;;;;;;6.96;33.94;101428.13;4998370;28;96883;-71
2021/05/08 05:38:44;;;;;;;16.55;13.27;;;;;;;7.00;34.01;101430.09;4997354;28;97470;-71
2021/05/08 05:41:12;;;;;;;14.65;13.15;;;;;;;7.08;33.84;101435.75;4999015;28;97765;-70
2021/05/08 05:43:39;;;;;;;16.92;13.20;;;;;;;7.16;33.50;101431.72;4999165;28;98059;-74
2021/05/08 05:46:06;;;;;;;17.38;14.20;;;;;;;7.19;33.19;101437.13;4997199;28;97003;-72
2021/05/08 05:48:35;;;;;;;16.15;13.57;;;;;;;7.27;33.54;101440.13;4996936;28;99093;-73
2021/05/08 05:51:02;;;;;;;18.08;13.77;;;;;;;7.36;33.32;101436.16;4996561;28;97538;-70
2021/05/08 05:53:29;;;;;;;19.83;13.73;;;;;;;7.43;33.40;101440.00;4995926;28;97196;-70
2021/05/08 05:55:57;;;;;;;17.02;13.63;;;;;;;7.43;33.52;101442.66;4998567;28;97939;-71
2021/05/08 05:58:24;;;;;;;18.92;13.10;;;;;;;7.49;33.15;101448.22;4995680;28;98974;-72
2021/05/08 06:00:51;;;;;;;16.40;13.25;;;;;;;7.55;33.15;101444.09;4991344;28;99004;-73
2021/05/08 06:03:19;;;;;;;16.33;13.57;;;;;;;7.60;33.23;101437.25;4995243;28;97325;-71
2021/05/08 06:05:47;;;;;;;15.65;13.18;;;;;;;7.66;32.80;101437.53;4995973;28;98061;-70
2021/05/08 06:08:15;;;;;;;18.13;14.20;;;;;;;7.73;32.78;101438.72;4993731;28;98190;-72
2021/05/08 06:10:42;;;;;;;16.52;14.02;;;;;;;7.81;32.78;101437.28;4999636;28;97895;-72
2021/05/08 06:13:10;;;;;;;16.52;14.13;;;;;;;7.83;32.92;101440.91;4995014;28;97264;-71
2021/05/08 06:15:37;;;;;;;16.65;13.45;;;;;;;7.89;32.92;101436.75;4988365;28;99033;-73
2021/05/08 06:18:05;;;;;;;19.83;13.55;;;;;;;7.96;32.73;101441.50;4998946;28;97857;-72
2021/05/08 06:20:32;;;;;;;15.38;13.65;;;;;;;8.01;32.64;101439.94;4993382;28;99082;-72
2021/05/08 06:23:02;;;;;;;15.68;13.07;;;;;;;8.04;32.76;101428.53;4997081;28;97476;-71
2021/05/08 06:25:29;;;;;;;16.63;13.95;;;;;;;8.08;32.36;101434.03;4990382;28;96995;-73
2021/05/08 06:27:56;;;;;;;14.23;12.70;;;;;;;8.16;32.58;101437.94;4990842;28;98028;-70
2021/05/08 06:30:23;;;;;;;15.75;12.77;;;;;;;8.19;32.57;101432.75;4992425;28;97975;-71
2021/05/08 06:32:51;;;;;;;15.68;12.50;;;;;;;8.24;32.55;101433.81;4995906;28;97562;-71
2021/05/08 06:35:18;;;;;;;14.57;13.07;;;;;;;8.29;32.44;101436.69;4988590;28;97541;-71
2021/05/08 06:37:48;;;;;;;17.70;12.68;;;;;;;8.37;32.10;101426.38;4984917;28;97396;-74
2021/05/08 06:40:17;;;;;;;14.55;13.05;;;;;;;8.43;32.49;101431.91;4994932;28;101221;-75
2021/05/08 06:42:44;;;;;;;15.20;13.23;;;;;;;8.48;32.11;101433.03;4996859;28;97269;-74
2021/05/08 06:45:11;;;;;;;13.75;12.07;;;;;;;8.54;32.08;101438.59;4996983;28;96859;-74
2021/05/08 06:47:39;;;;;;;14.43;12.85;;;;;;;8.59;32.23;101439.66;4993881;28;99541;-75
2021/05/08 06:50:08;;;;;;;15.93;12.85;;;;;;;8.60;32.42;101442.41;4989554;28;98044;-73
2021/05/08 06:52:36;;;;;;;12.88;11.55;;;;;;;8.61;32.33;101444.19;4995565;28;97047;-73
2021/05/08 06:55:07;;;;;;;13.57;12.07;;;;;;;8.68;32.23;101445.31;4994951;28;98425;-73
2021/05/08 06:57:35;;;;;;;12.35;10.55;;;;;;;8.74;32.24;101443.84;4996108;28;98625;-72
2021/05/08 07:00:03;;;;;;;15.07;11.82;;;;;;;8.82;31.94;101450.31;4997304;28;97839;-72
2021/05/08 07:02:30;;;;;;;12.57;11.25;;;;;;;8.91;32.08;101445.41;4995181;28;97860;-73
2021/05/08 07:04:58;;;;;;;11.80;10.73;;;;;;;9.00;32.07;101440.44;4996273;28;97722;-75
2021/05/08 07:07:25;;;;;;;14.27;11.07;;;;;;;9.11;31.83;101448.81;4995514;28;97656;-73
2021/05/08 07:09:54;;;;;;;15.02;11.40;;;;;;;9.19;31.75;101449.97;4996639;28;99471;-73
2021/05/08 07:12:21;;;;;;;11.93;10.48;;;;;;;9.23;31.69;101449.25;4996055;28;97485;-72
2021/05/08 07:14:49;;;;;;;13.13;10.88;;;;;;;9.20;31.62;101447.41;4995162;28;97775;-72
2021/05/08 07:17:16;;;;;;;15.27;12.80;;;;;;;9.11;32.09;101443.50;4995051;28;101904;-74
2021/05/08 07:19:45;;;;;;;12.57;11.40;;;;;;;9.17;32.20;101443.69;4993181;28;97837;-73
2021/05/08 07:22:12;;;;;;;11.82;9.45;;;;;;;9.36;31.82;101455.91;4997520;28;97815;-73
2021/05/08 07:24:39;;;;;;;9.55;8.65;;;;;;;9.42;31.59;101445.53;4997375;28;97703;-72
2021/05/08 07:27:08;;;;;;;10.70;9.57;;;;;;;9.48;31.50;101451.97;4996127;28;98545;-73
2021/05/08 07:29:35;;;;;;;10.07;9.00;;;;;;;9.53;31.31;101444.19;5001615;28;99083;-74
2021/05/08 07:32:04;;;;;;;9.68;8.75;;;;;;;9.58;31.32;101438.19;4993906;28;97583;-75
2021/05/08 07:34:32;;;;;;;9.45;8.48;;;;;;;9.62;31.36;101444.53;4997420;28;97656;-73
2021/05/08 07:36:59;;;;;;;9.60;8.60;;;;;;;9.67;31.12;101445.56;4994444;28;97865;-74
2021/05/08 07:39:26;;;;;;;11.95;9.18;;;;;;;9.75;31.18;101444.09;4996260;28;97954;-74
2021/05/08 07:41:53;;;;;;;9.38;8.48;;;;;;;9.79;30.97;101444.25;4997511;28;96808;-73
2021/05/08 07:44:21;;;;;;;9.40;8.30;;;;;;;9.85;30.94;101438.25;4997697;28;97506;-73
2021/05/08 07:46:48;;;;;;;10.45;7.88;;;;;;;9.94;30.90;101436.81;4996289;28;98402;-72
2021/05/08 07:49:16;;;;;;;9.52;8.52;;;;;;;10.01;30.75;101435.28;4996560;28;98034;-71
2021/05/08 07:51:43;;;;;;;9.32;8.32;;;;;;;10.04;30.70;101430.97;4994885;28;97321;-72
2021/05/08 07:54:11;;;;;;;12.60;8.15;;;;;;;10.13;30.67;101431.25;4999073;28;97359;-72
2021/05/08 07:56:38;;;;;;;11.60;8.35;;;;;;;10.15;30.52;101424.25;5000050;28;99091;-74
2021/05/08 07:59:06;;;;;;;12.35;10.65;;;;;;;10.10;30.15;101427.59;4999517;28;98470;-73
2021/05/08 08:01:33;;;;;;;10.60;9.57;;;;;;;10.25;30.13;101414.78;4999287;28;96866;-72
2021/05/08 08:04:01;;;;;;;10.55;9.27;;;;;;;10.36;30.05;101417.78;5000261;28;98692;-75
2021/05/08 08:06:29;;;;;;;9.23;8.43;;;;;;;10.49;29.92;101417.34;4999268;28;99006;-72
2021/05/08 08:08:56;;;;;;;10.43;8.98;;;;;;;10.57;29.81;101421.19;4998865;28;97927;-71
2021/05/08 08:11:23;;;;;;;11.40;8.57;;;;;;;10.63;29.76;101429.34;5000439;28;98429;-74
2021/05/08 08:13:50;;;;;;;9.98;8.27;;;;;;;10.72;29.62;101426.97;4997801;28;97165;-72
2021/05/08 08:16:18;;;;;;;9.50;8.55;;;;;;;10.77;29.72;101444.91;4994337;28;99073;-72
2021/05/08 08:18:45;;;;;;;10.90;9.10;;;;;;;10.75;29.69;101435.97;4994557;28;102672;-73
2021/05/08 08:21:12;;;;;;;11.15;8.02;;;;;;;10.76;29.52;101429.75;4997486;28;96780;-71
2021/05/08 08:23:41;;;;;;;12.88;8.52;;;;;;;10.81;29.55;101436.13;4999268;28;96978;-73
2021/05/08 08:26:09;;;;;;;9.43;7.55;;;;;;;10.86;29.53;101438.94;4998289;28;97760;-73
2021/05/08 08:28:36;;;;;;;9.07;8.18;;;;;;;10.91;29.53;101432.91;5000251;28;97858;-72
2021/05/08 08:31:04;;;;;;;8.35;7.55;;;;;;;10.91;29.52;101432.00;4999062;28;97669;-73
2021/05/08 08:33:31;;;;;;;10.00;8.10;;;;;;;10.97;29.26;101435.75;4996818;28;96961;-72
2021/05/08 08:35:58;;;;;;;10.27;8.93;;;;;;;10.96;29.27;101425.03;4996869;28;99178;-73
2021/05/08 08:38:26;;;;;;;8.15;7.35;;;;;;;10.99;29.17;101433.13;4999109;28;98003;-74
2021/05/08 08:40:54;;;;;;;9.13;8.05;;;;;;;10.97;29.16;101434.84;4998770;28;97838;-71
2021/05/08 08:43:23;;;;;;;10.40;7.45;;;;;;;11.00;29.15;101434.91;4997407;28;97122;-72
2021/05/08 08:45:50;;;;;;;8.43;7.40;;;;;;;11.05;29.04;101435.97;4998995;28;99421;-72
2021/05/08 08:48:19;;;;;;;8.15;6.05;;;;;;;11.06;29.15;101437.78;4998565;28;99029;-73
2021/05/08 08:50:48;;;;;;;8.65;6.70;;;;;;;11.05;28.98;101430.63;4998515;28;97629;-71
2021/05/08 08:53:16;;;;;;;7.65;6.80;;;;;;;11.11;28.91;101425.50;4999933;28;97488;-74
2021/05/08 08:55:51;;;;;;;8.23;6.85;;;;;;;11.15;28.69;101425.63;4998860;28;100021;-73
2021/05/08 08:58:21;;;;;;;9.27;8.10;;;;;;;11.17;28.72;101431.91;4999686;28;99732;-72
2021/05/08 09:00:48;;;;;;;10.40;7.53;;;;;;;11.15;28.88;101433.63;4996572;28;97372;-70
2021/05/08 09:03:15;;;;;;;8.30;7.47;;;;;;;11.17;28.68;101421.25;4997709;28;97382;-73
2021/05/08 09:05:42;;;;;;;8.93;7.25;;;;;;;11.27;28.80;101432.19;4998410;28;97564;-72
2021/05/08 09:08:12;;;;;;;7.97;6.55;;;;;;;11.32;28.54;101430.56;4998335;28;99538;-71
2021/05/08 09:10:39;;;;;;;6.47;5.88;;;;;;;11.36;28.67;101421.81;4998082;28;97131;-71
2021/05/08 09:13:07;;;;;;;6.43;5.82;;;;;;;11.45;28.40;101425.63;4999401;28;97374;-72
2021/05/08 09:15:37;;;;;;;8.40;7.60;;;;;;;11.54;28.28;101443.66;4997879;28;97954;-72
2021/05/08 09:18:05;;;;;;;8.07;7.10;;;;;;;11.57;28.20;101433.06;4998696;28;98919;-71
2021/05/08 09:20:44;;;;;;;7.97;7.10;;;;;;;11.62;27.67;101424.31;4998038;28;98890;-74
2021/05/08 09:23:19;;;;;;;6.53;5.85;;;;;;;11.64;27.50;101427.94;5000575;28;97470;-73
2021/05/08 09:25:57;;;;;;;7.78;6.57;;;;;;;11.63;28.00;101423.47;4999556;28;97291;-71
2021/05/08 09:28:26;;;;;;;10.43;9.38;;;;;;;11.56;27.46;101420.59;4997283;28;97946;-71
2021/05/08 09:30:55;;;;;;;8.80;8.00;;;;;;;11.76;27.57;101422.03;4998546;28;97694;-71
2021/05/08 09:33:24;;;;;;;8.57;7.50;;;;;;;11.87;27.51;101420.56;4998189;28;97549;-71
2021/05/08 09:36:02;;;;;;;10.48;9.38;;;;;;;11.85;27.18;101420.50;4998000;28;99333;-74
2021/05/08 09:38:30;;;;;;;7.45;6.85;;;;;;;12.05;27.05;101413.91;4997488;28;99446;-71
2021/05/08 09:40:58;;;;;;;7.82;7.10;;;;;;;12.17;27.02;101403.59;5000296;28;97480;-74
2021/05/08 09:43:25;;;;;;;7.68;6.97;;;;;;;12.27;27.02;101403.81;4998995;28;97297;-72
2021/05/08 09:45:53;;;;;;;7.43;6.30;;;;;;;12.45;26.94;101404.25;4996364;28;100909;-72
2021/05/08 09:48:23;;;;;;;7.40;6.75;;;;;;;12.55;26.82;101392.88;4997068;28;97520;-71
2021/05/08 09:51:17;;;;;;;7.13;6.43;;;;;;;12.71;26.49;101384.38;4997568;28;97960;-74
2021/05/08 09:53:44;;;;;;;7.47;6.78;;;;;;;12.84;26.61;101384.66;4998559;28;97793;-72
2021/05/08 09:56:36;;;;;;;10.68;5.90;;;;;;;12.97;25.62;101396.50;4996300;28;100740;-73
2021/05/08 09:59:21;;;;;;;5.18;4.78;;;;;;;12.97;25.69;101383.16;4984110;28;98000;-73
2021/05/08 10:01:49;;;;;;;7.57;5.75;;;;;;;12.97;26.26;101392.06;4998510;28;97334;-71
2021/05/08 10:04:32;;;;;;;7.10;6.40;;;;;;;12.92;25.65;101382.16;4998032;28;97095;-72
2021/05/08 10:07:06;;;;;;;6.28;5.68;;;;;;;12.89;26.42;101374.97;4997224;28;99840;-71
2021/05/08 10:09:33;;;;;;;6.65;6.10;;;;;;;;;;4997622;28;98531;-72
2021/05/08 10:12:04;;;;;;;7.75;7.00;;;;;;;12.95;26.50;101364.41;4999037;28;96913;-71
2021/05/08 10:14:34;;;;;;;6.97;6.10;;;;;;;12.95;26.34;101363.50;4995974;28;98029;-72
2021/05/08 10:17:16;;;;;;;6.45;5.85;;;;;;;13.00;26.37;101354.75;4989563;28;99324;-73
2021/05/08 10:19:46;;;;;;;6.97;6.28;;;;;;;13.11;26.18;101368.34;4995545;28;101850;-73
2021/05/08 10:22:15;;;;;;;9.23;6.43;;;;;;;13.09;26.22;101362.06;4995581;28;98906;-72
2021/05/08 10:24:44;;;;;;;6.55;5.97;;;;;;;13.09;26.28;101359.41;4996566;28;97496;-71
2021/05/08 10:27:11;;;;;;;10.15;7.72;;;;;;;13.00;25.58;101356.53;4994344;28;99739;-72
2021/05/08 10:29:40;;;;;;;8.45;6.82;;;;;;;13.17;25.44;101358.69;4995798;28;98646;-74
2021/05/08 10:32:09;;;;;;;6.90;6.22;;;;;;;13.18;24.88;101355.13;4998407;28;97201;-71
2021/05/08 10:34:51;;;;;;;6.97;6.28;;;;;;;13.24;25.00;101349.00;4997238;28;97638;-72
2021/05/08 10:37:19;;;;;;;6.53;5.88;;;;;;;13.28;25.49;101345.50;4999024;28;99038;-72
2021/05/08 10:39:52;;;;;;;6.28;5.68;;;;;;;13.38;25.30;101342.16;4998186;28;98502;-72
2021/05/08 10:42:34;;;;;;;7.32;6.65;;;;;;;13.53;24.53;101350.44;4999216;28;97678;-73
2021/05/08 10:45:03;;;;;;;6.13;5.53;;;;;;;13.65;25.21;101341.75;4997310;28;97140;-72
2021/05/08 10:48:06;;;;;;;9.02;6.97;;;;;;;13.90;24.46;101334.19;4998136;28;97282;-71
2021/05/08 10:50:42;;;;;;;15.30;12.15;;;;;;;14.17;24.82;101324.81;4994205;28;97895;-76
2021/05/08 10:53:10;;;;;;;9.07;8.18;;;;;;;14.42;24.80;101324.28;4998482;28;98632;-72
2021/05/08 10:55:48;;;;;;;7.78;7.10;;;;;;;14.64;24.16;101316.59;4999340;28;97964;-71
2021/05/08 10:58:29;;;;;;;7.75;6.85;;;;;;;14.82;23.99;101315.91;4995424;28;97908;-73
2021/05/08 11:00:59;;;;;;;8.10;7.43;;;;;;;14.97;24.43;101326.81;4995946;28;100514;-73
2021/05/08 11:03:27;;;;;;;7.60;7.00;;;;;;;15.03;24.25;101313.47;4997635;28;97817;-74
2021/05/08 11:05:56;;;;;;;10.23;8.10;;;;;;;15.01;23.86;101308.09;4998680;28;97508;-72
2021/05/08 11:08:43;;;;;;;7.50;6.72;;;;;;;15.14;22.74;101314.50;4996961;28;98053;-75
2021/05/08 11:11:12;;;;;;;8.70;7.57;;;;;;;15.17;24.01;101310.97;4996330;28;98101;-74
2021/05/08 11:13:55;;;;;;;8.13;7.25;;;;;;;15.23;22.53;101298.50;4997634;28;97453;-73
2021/05/08 11:16:24;;;;;;;10.13;7.40;;;;;;;15.26;24.02;101292.28;4996873;28;98001;-73
2021/05/08 11:18:52;;;;;;;8.98;7.07;;;;;;;15.26;24.17;101303.00;4995497;28;98091;-71
2021/05/08 11:21:40;;;;;;;6.75;6.00;;;;;;;15.37;22.82;101291.56;4995115;28;98090;-73
2021/05/08 11:24:09;;;;;;;8.65;7.72;;;;;;;15.42;23.50;101295.16;4997822;28;98446;-71
2021/05/08 11:26:45;;;;;;;8.75;7.85;;;;;;;15.50;23.49;101281.84;4996462;28;97860;-72
2021/05/08 11:29:16;;;;;;;7.90;7.10;;;;;;;15.58;23.47;101278.31;5000810;28;99264;-72
2021/05/08 11:31:46;;;;;;;7.72;6.93;;;;;;;15.67;23.43;101269.44;5000288;28;99052;-73
2021/05/08 11:34:15;;;;;;;9.15;7.53;;;;;;;15.78;23.52;101278.47;5001335;28;96930;-73